createdAt,value
2023-02-21T00:00:20.970Z,96.37
2023-02-21T00:03:08.646Z,97.13
2023-02-21T00:05:55.184Z,97.87
2023-02-21T00:08:41.904Z,96.27
2023-02-21T00:11:28.720Z,95.05
2023-02-21T00:14:15.026Z,92.78
2023-02-21T00:17:02.151Z,93.58
2023-02-21T00:19:49.335Z,96.26
2023-02-21T00:22:36.359Z,96.35
2023-02-21T00:25:23.232Z,96.27
2023-02-21T00:28:10.149Z,97.36
2023-02-21T00:30:57.441Z,97.83
2023-02-21T00:33:44.790Z,98.81
2023-02-21T00:36:36.254Z,99.09
2023-02-21T00:39:23.636Z,98.99
2023-02-21T00:42:10.865Z,99.00
2023-02-21T00:44:57.391Z,99.96
2023-02-21T00:47:44.922Z,100.00
2023-02-21T00:50:32.794Z,100.00
2023-02-21T00:53:19.660Z,100.00
2023-02-21T00:56:06.669Z,100.00
2023-02-21T00:58:53.074Z,100.00
2023-02-21T01:01:40.406Z,100.00
2023-02-21T01:04:27.528Z,100.00
2023-02-21T01:07:14.307Z,100.00
2023-02-21T01:10:01.248Z,100.00
2023-02-21T01:12:48.112Z,100.00
2023-02-21T01:15:34.892Z,100.00
2023-02-21T01:18:21.823Z,100.00
2023-02-21T01:21:08.993Z,100.00
2023-02-21T01:23:55.493Z,100.00
2023-02-21T01:26:42.291Z,100.00
2023-02-21T01:29:29.858Z,100.00
2023-02-21T01:32:15.992Z,100.00
2023-02-21T01:35:02.965Z,100.00
2023-02-21T01:37:49.947Z,99.56
2023-02-21T01:40:35.864Z,99.40
2023-02-21T01:43:24.701Z,100.00
2023-02-21T01:46:11.622Z,100.00
2023-02-21T01:48:57.567Z,100.00
2023-02-21T01:51:46.233Z,100.00
2023-02-21T01:54:32.548Z,100.00
2023-02-21T01:57:20.014Z,100.00
2023-02-21T02:00:05.923Z,100.00
2023-02-21T02:02:59.920Z,99.62
2023-02-21T02:05:53.195Z,100.00
2023-02-21T02:08:40.546Z,100.00
2023-02-21T02:11:40.592Z,100.00
2023-02-21T02:14:29.978Z,100.00
2023-02-21T02:17:03.820Z,100.00
2023-02-21T02:20:05.206Z,100.00
2023-02-21T02:22:40.232Z,100.00
2023-02-21T02:25:20.185Z,100.00
2023-02-21T02:28:09.861Z,100.00
2023-02-21T02:30:52.237Z,100.00
2023-02-21T02:33:41.753Z,100.00
2023-02-21T02:36:47.852Z,100.00
2023-02-21T02:39:21.484Z,100.00
2023-02-21T02:42:07.915Z,100.00
2023-02-21T02:44:35.312Z,100.00
2023-02-21T02:47:03.579Z,100.00
2023-02-21T02:49:35.274Z,98.98
2023-02-21T02:52:09.147Z,98.91
2023-02-21T02:54:36.735Z,100.00
2023-02-21T02:57:04.852Z,100.00
2023-02-21T02:59:36.366Z,100.00
2023-02-21T03:02:15.393Z,100.00
2023-02-21T03:05:01.567Z,100.00
2023-02-21T03:08:02.524Z,100.00
2023-02-21T03:10:37.316Z,100.00
2023-02-21T03:13:11.284Z,100.00
2023-02-21T03:15:58.827Z,100.00
2023-02-21T03:19:04.890Z,100.00
2023-02-21T03:21:35.695Z,100.00
2023-02-21T03:24:03.687Z,100.00
2023-02-21T03:26:35.286Z,100.00
2023-02-21T03:29:03.335Z,100.00
2023-02-21T03:31:36.222Z,95.90
2023-02-21T03:34:04.971Z,94.48
2023-02-21T03:36:33.073Z,93.04
2023-02-21T03:39:01.830Z,94.22
2023-02-21T03:41:30.158Z,97.34
2023-02-21T03:44:04.574Z,99.05
2023-02-21T03:46:33.401Z,99.99
2023-02-21T03:49:03.711Z,100.00
2023-02-21T03:51:32.866Z,100.00
2023-02-21T03:54:01.570Z,100.00
2023-02-21T03:56:41.177Z,100.00
2023-02-21T03:59:11.431Z,100.00
2023-02-21T04:01:40.911Z,100.00
2023-02-21T04:04:09.313Z,100.00
2023-02-21T04:06:37.808Z,100.00
2023-02-21T04:09:06.922Z,100.00
2023-02-21T04:11:35.493Z,100.00
2023-02-21T04:14:04.670Z,100.00
2023-02-21T04:16:33.478Z,100.00
2023-02-21T04:19:02.551Z,100.00
2023-02-21T04:21:30.564Z,100.00
2023-02-21T04:23:59.382Z,100.00
2023-02-21T04:26:30.060Z,100.00
2023-02-21T04:28:57.946Z,100.00
2023-02-21T04:31:26.933Z,100.00
2023-02-21T04:34:10.556Z,100.00
2023-02-21T04:36:39.446Z,100.00
2023-02-21T04:39:08.294Z,100.00
2023-02-21T04:41:39.932Z,100.00
2023-02-21T04:44:08.765Z,100.00
2023-02-21T04:46:37.518Z,100.00
2023-02-21T04:49:06.263Z,100.00
2023-02-21T04:51:35.095Z,100.00
2023-02-21T04:54:03.621Z,100.00
2023-02-21T04:56:32.773Z,100.00
2023-02-21T04:59:04.847Z,100.00
2023-02-21T05:01:34.425Z,100.00
2023-02-21T05:04:03.205Z,100.00
2023-02-21T05:06:31.713Z,100.00
2023-02-21T05:09:00.136Z,100.00
2023-02-21T05:11:28.929Z,100.00
2023-02-21T05:13:57.794Z,100.00
2023-02-21T05:16:29.929Z,100.00
2023-02-21T05:18:58.151Z,100.00
2023-02-21T05:21:26.383Z,100.00
2023-02-21T05:23:56.343Z,100.00
2023-02-21T05:26:30.009Z,100.00
2023-02-21T05:28:57.726Z,100.00
2023-02-21T05:31:26.932Z,100.00
2023-02-21T05:33:55.334Z,100.00
2023-02-21T05:36:25.811Z,100.00
2023-02-21T05:38:54.706Z,100.00
2023-02-21T05:41:25.711Z,100.00
2023-02-21T05:43:54.634Z,100.00
2023-02-21T05:46:32.687Z,100.00
2023-02-21T05:49:01.975Z,100.00
2023-02-21T05:51:37.221Z,100.00
2023-02-21T05:54:07.474Z,100.00
2023-02-21T05:56:44.824Z,100.00
2023-02-21T05:59:13.405Z,100.00
2023-02-21T06:01:42.151Z,100.00
2023-02-21T06:04:11.803Z,100.00
2023-02-21T06:06:40.551Z,100.00
2023-02-21T06:09:09.229Z,100.00
2023-02-21T06:11:40.463Z,100.00
2023-02-21T06:14:09.396Z,100.00
2023-02-21T06:16:37.688Z,100.00
2023-02-21T06:19:06.147Z,100.00
2023-02-21T06:21:35.778Z,100.00
2023-02-21T06:24:04.318Z,100.00
2023-02-21T06:26:33.226Z,100.00
2023-02-21T06:29:01.399Z,100.00
2023-02-21T06:31:32.809Z,100.00
2023-02-21T06:34:01.490Z,100.00
2023-02-21T06:36:29.968Z,100.00
2023-02-21T06:38:58.743Z,100.00
2023-02-21T06:41:29.353Z,100.00
2023-02-21T06:43:57.796Z,100.00
2023-02-21T06:46:27.810Z,100.00
2023-02-21T06:48:59.537Z,100.00
2023-02-21T06:51:29.966Z,100.00
2023-02-21T06:53:57.920Z,100.00
2023-02-21T06:56:27.010Z,100.00
2023-02-21T06:58:55.424Z,100.00
2023-02-21T07:01:23.931Z,100.00
2023-02-21T07:03:51.788Z,100.00
2023-02-21T07:06:19.971Z,100.00
2023-02-21T07:08:48.795Z,100.00
2023-02-21T07:11:17.015Z,100.00
2023-02-21T07:13:50.795Z,100.00
2023-02-21T07:16:19.557Z,100.00
2023-02-21T07:18:47.651Z,100.00
2023-02-21T07:21:17.449Z,100.00
2023-02-21T07:23:48.568Z,100.00
2023-02-21T07:26:16.837Z,100.00
2023-02-21T07:28:46.206Z,100.00
2023-02-21T07:31:16.141Z,100.00
2023-02-21T07:33:45.785Z,100.00
2023-02-21T07:36:14.141Z,100.00
2023-02-21T07:38:43.082Z,100.00
2023-02-21T07:41:14.169Z,100.00
2023-02-21T07:43:42.909Z,100.00
2023-02-21T07:46:11.716Z,100.00
2023-02-21T07:48:40.093Z,100.00
2023-02-21T07:51:10.037Z,100.00
2023-02-21T07:53:38.571Z,100.00
2023-02-21T07:56:08.058Z,100.00
2023-02-21T07:58:43.643Z,100.00
2023-02-21T08:01:12.781Z,100.00
2023-02-21T08:03:41.989Z,100.00
2023-02-21T08:06:10.656Z,100.00
2023-02-21T08:08:39.343Z,100.00
2023-02-21T08:11:08.283Z,100.00
2023-02-21T08:13:36.082Z,100.00
2023-02-21T08:16:07.844Z,100.00
2023-02-21T08:18:36.929Z,100.00
2023-02-21T08:21:05.354Z,100.00
2023-02-21T08:23:34.107Z,100.00
2023-02-21T08:26:03.512Z,100.00
2023-02-21T08:28:31.863Z,100.00
2023-02-21T08:31:01.248Z,100.00
2023-02-21T08:33:31.661Z,100.00
2023-02-21T08:35:59.518Z,100.00
2023-02-21T08:38:28.212Z,100.00
2023-02-21T08:40:57.843Z,100.00
2023-02-21T08:43:26.511Z,100.00
2023-02-21T08:45:54.988Z,100.00
2023-02-21T08:48:24.613Z,100.00
2023-02-21T08:50:55.383Z,100.00
2023-02-21T08:53:24.821Z,100.00
2023-02-21T08:55:53.925Z,100.00
2023-02-21T08:58:22.917Z,100.00
2023-02-21T09:00:51.705Z,100.00
2023-02-21T09:03:20.667Z,100.00
2023-02-21T09:05:49.927Z,100.00
2023-02-21T09:08:39.310Z,100.00
2023-02-21T09:11:07.801Z,100.00
2023-02-21T09:13:36.307Z,100.00
2023-02-21T09:16:06.336Z,100.00
2023-02-21T09:18:35.222Z,100.00
2023-02-21T09:21:04.217Z,100.00
2023-02-21T09:23:33.654Z,100.00
2023-02-21T09:26:01.686Z,100.00
2023-02-21T09:28:31.679Z,100.00
2023-02-21T09:31:00.183Z,99.21
2023-02-21T09:33:28.825Z,99.63
2023-02-21T09:35:57.372Z,98.96
2023-02-21T09:38:26.615Z,98.91
2023-02-21T09:40:59.986Z,98.99
2023-02-21T09:43:38.225Z,97.79
2023-02-21T09:46:09.833Z,96.24
2023-02-21T09:48:40.495Z,95.27
2023-02-21T09:51:07.990Z,94.71
2023-02-21T09:53:44.653Z,94.23
2023-02-21T09:56:19.565Z,94.01
2023-02-21T09:58:48.355Z,94.36
2023-02-21T10:01:41.061Z,93.60
2023-02-21T10:04:29.690Z,93.90
2023-02-21T10:07:15.943Z,92.84
2023-02-21T10:09:56.658Z,91.96
2023-02-21T10:12:37.078Z,90.49
2023-02-21T10:15:23.203Z,90.67
2023-02-21T10:18:02.259Z,90.82
2023-02-21T10:20:38.057Z,90.82
2023-02-21T10:23:13.706Z,90.73
2023-02-21T10:25:40.913Z,90.32
2023-02-21T10:28:09.472Z,90.17
2023-02-21T10:30:38.148Z,88.56
2023-02-21T10:33:09.054Z,89.38
2023-02-21T10:35:41.009Z,89.57
2023-02-21T10:38:32.072Z,88.52
2023-02-21T10:41:00.390Z,86.76
2023-02-21T10:43:38.011Z,87.71
2023-02-21T10:46:23.036Z,85.91
2023-02-21T10:48:54.203Z,85.93
2023-02-21T10:51:36.673Z,86.61
2023-02-21T10:54:19.696Z,85.12
2023-02-21T10:56:48.037Z,84.47
2023-02-21T10:59:23.283Z,83.44
2023-02-21T11:01:51.351Z,84.51
2023-02-21T11:04:21.263Z,81.92
2023-02-21T11:07:12.113Z,79.77
2023-02-21T11:09:48.242Z,80.61
2023-02-21T11:12:30.032Z,80.77
2023-02-21T11:15:15.901Z,79.60
2023-02-21T11:17:51.910Z,79.90
2023-02-21T11:20:21.152Z,80.06
2023-02-21T11:22:48.945Z,78.19
2023-02-21T11:25:32.381Z,77.71
2023-02-21T11:28:02.799Z,76.65
2023-02-21T11:30:30.771Z,76.45
2023-02-21T11:33:01.338Z,76.67
2023-02-21T11:35:30.401Z,77.25
2023-02-21T11:37:58.324Z,78.63
2023-02-21T11:40:49.905Z,78.04
2023-02-21T11:43:50.931Z,77.82
2023-02-21T11:46:22.169Z,78.28
2023-02-21T11:49:24.648Z,76.10
2023-02-21T11:52:14.929Z,75.61
2023-02-21T11:54:44.123Z,74.69
2023-02-21T11:57:20.066Z,73.07
2023-02-21T11:59:56.850Z,72.29
2023-02-21T12:02:26.447Z,71.12
2023-02-21T12:05:11.877Z,70.13
2023-02-21T12:08:05.871Z,70.26
2023-02-21T12:10:38.734Z,68.82
2023-02-21T12:13:08.582Z,67.67
2023-02-21T12:15:47.755Z,66.76
2023-02-21T12:18:41.032Z,65.92
2023-02-21T12:21:14.304Z,65.28
2023-02-21T12:23:48.302Z,64.30
2023-02-21T12:26:22.592Z,63.66
2023-02-21T12:28:50.440Z,61.13
2023-02-21T12:31:45.217Z,60.38
2023-02-21T12:34:41.350Z,59.60
2023-02-21T12:37:27.197Z,60.14
2023-02-21T12:40:29.636Z,59.21
2023-02-21T12:43:05.876Z,57.39
2023-02-21T12:45:42.859Z,56.59
2023-02-21T12:48:20.834Z,55.26
2023-02-21T12:50:51.017Z,55.27
2023-02-21T12:53:26.077Z,54.38
2023-02-21T12:56:06.932Z,53.36
2023-02-21T12:58:43.074Z,52.34
2023-02-21T13:01:32.362Z,52.48
2023-02-21T13:04:14.134Z,52.36
2023-02-21T13:06:56.285Z,51.90
2023-02-21T13:10:03.683Z,50.19
2023-02-21T13:12:40.330Z,49.62
2023-02-21T13:15:16.494Z,49.41
2023-02-21T13:17:47.496Z,50.10
2023-02-21T13:20:18.103Z,49.55
2023-02-21T13:23:03.769Z,48.17
2023-02-21T13:25:54.093Z,48.38
2023-02-21T13:28:23.566Z,48.69
2023-02-21T13:30:58.626Z,47.69
2023-02-21T13:33:45.131Z,46.73
2023-02-21T13:36:40.050Z,45.08
2023-02-21T13:39:10.272Z,44.66
2023-02-21T13:41:50.448Z,43.81
2023-02-21T13:44:24.577Z,44.12
2023-02-21T13:46:51.898Z,44.46
2023-02-21T13:49:43.098Z,44.12
2023-02-21T13:52:24.889Z,43.31
2023-02-21T13:55:16.850Z,44.02
2023-02-21T13:58:00.022Z,45.51
2023-02-21T14:00:29.986Z,46.55
2023-02-21T14:03:12.701Z,47.86
2023-02-21T14:05:46.045Z,48.43
2023-02-21T14:08:32.488Z,49.16
2023-02-21T14:11:00.544Z,49.08
2023-02-21T14:13:57.751Z,49.40
2023-02-21T14:16:53.356Z,49.80
2023-02-21T14:19:26.091Z,49.80
2023-02-21T14:22:15.953Z,50.55
2023-02-21T14:24:44.772Z,50.81
2023-02-21T14:27:11.783Z,51.67
2023-02-21T14:29:43.793Z,52.03
2023-02-21T14:32:10.857Z,51.82
2023-02-21T14:34:56.049Z,51.06
2023-02-21T14:38:02.786Z,51.81
2023-02-21T14:40:32.713Z,52.27
2023-02-21T14:43:05.411Z,52.83
2023-02-21T14:45:51.817Z,53.92
2023-02-21T14:48:40.764Z,53.60
2023-02-21T14:51:29.919Z,53.85
2023-02-21T14:54:37.379Z,54.79
2023-02-21T14:57:16.613Z,55.65
2023-02-21T15:00:01.633Z,56.06
2023-02-21T15:02:47.384Z,56.68
2023-02-21T15:05:20.007Z,56.72
2023-02-21T15:07:46.922Z,57.04
2023-02-21T15:10:18.861Z,57.53
2023-02-21T15:12:52.954Z,57.64
2023-02-21T15:15:39.438Z,57.68
2023-02-21T15:18:13.729Z,58.57
2023-02-21T15:20:41.597Z,59.44
2023-02-21T15:23:29.749Z,59.12
2023-02-21T15:25:58.940Z,58.66
2023-02-21T15:28:30.843Z,59.75
2023-02-21T15:31:05.260Z,60.24
2023-02-21T15:33:37.035Z,60.05
2023-02-21T15:36:27.611Z,60.93
2023-02-21T15:38:59.759Z,61.24
2023-02-21T15:41:35.630Z,62.06
2023-02-21T15:44:05.273Z,63.40
2023-02-21T15:46:54.157Z,63.50
2023-02-21T15:49:23.735Z,64.36
2023-02-21T15:52:13.844Z,65.29
2023-02-21T15:54:41.903Z,65.62
2023-02-21T15:57:12.301Z,66.51
2023-02-21T15:59:40.314Z,66.20
2023-02-21T16:02:16.045Z,67.23
2023-02-21T16:05:07.205Z,67.38
2023-02-21T16:07:37.220Z,67.06
2023-02-21T16:10:09.721Z,68.21
2023-02-21T16:12:43.753Z,68.84
2023-02-21T16:15:13.704Z,68.99
2023-02-21T16:17:41.119Z,69.69
2023-02-21T16:20:18.747Z,69.76
2023-02-21T16:23:06.773Z,70.03
2023-02-21T16:25:35.699Z,70.73
2023-02-21T16:28:03.343Z,70.50
2023-02-21T16:30:31.227Z,71.49
2023-02-21T16:33:05.144Z,71.62
2023-02-21T16:35:32.607Z,71.93
2023-02-21T16:38:01.242Z,72.53
2023-02-21T16:40:30.808Z,72.57
2023-02-21T16:43:01.493Z,72.55
2023-02-21T16:45:30.166Z,72.83
2023-02-21T16:48:02.899Z,73.27
2023-02-21T16:50:29.924Z,73.93
2023-02-21T16:52:57.493Z,74.11
2023-02-21T16:55:25.668Z,74.65
2023-02-21T16:57:56.149Z,74.52
2023-02-21T17:00:25.114Z,75.00
2023-02-21T17:02:52.762Z,75.37
2023-02-21T17:05:25.216Z,74.78
2023-02-21T17:07:57.522Z,75.75
2023-02-21T17:10:25.138Z,75.72
2023-02-21T17:12:53.115Z,75.75
2023-02-21T17:15:21.793Z,76.18
2023-02-21T17:17:53.437Z,76.39
2023-02-21T17:20:22.933Z,76.70
2023-02-21T17:22:51.747Z,77.32
2023-02-21T17:25:20.661Z,77.36
2023-02-21T17:27:48.891Z,77.77
2023-02-21T17:30:16.509Z,77.28
2023-02-21T17:32:44.728Z,77.60
2023-02-21T17:35:15.491Z,77.09
2023-02-21T17:37:44.129Z,76.79
2023-02-21T17:40:12.153Z,77.50
2023-02-21T17:42:40.037Z,77.41
2023-02-21T17:45:09.529Z,77.22
2023-02-21T17:47:37.314Z,76.83
2023-02-21T17:50:05.335Z,76.92
2023-02-21T17:52:32.652Z,76.87
2023-02-21T17:55:02.828Z,76.79
2023-02-21T17:57:35.803Z,77.12
2023-02-21T18:00:08.119Z,77.49
2023-02-21T18:02:36.893Z,77.63
2023-02-21T18:05:03.986Z,78.04
2023-02-21T18:07:32.912Z,77.88
2023-02-21T18:10:04.508Z,77.81
2023-02-21T18:12:33.910Z,78.39
2023-02-21T18:15:02.102Z,78.53
2023-02-21T18:17:29.639Z,78.04
2023-02-21T18:19:57.639Z,78.19
2023-02-21T18:22:25.655Z,78.28
2023-02-21T18:24:53.379Z,78.72
2023-02-21T18:27:21.369Z,78.96
2023-02-21T18:29:50.639Z,78.79
2023-02-21T18:32:18.764Z,78.83
2023-02-21T18:34:46.848Z,79.20
2023-02-21T18:37:14.442Z,78.98
2023-02-21T18:39:42.493Z,79.30
2023-02-21T18:42:10.019Z,79.61
2023-02-21T18:44:38.084Z,79.53
2023-02-21T18:47:06.662Z,79.25
2023-02-21T18:49:38.686Z,79.32
2023-02-21T18:52:07.362Z,79.25
2023-02-21T18:54:35.554Z,79.33
2023-02-21T18:57:03.319Z,79.41
2023-02-21T18:59:30.925Z,79.79
2023-02-21T19:01:58.828Z,79.95
2023-02-21T19:04:26.740Z,80.00
2023-02-21T19:06:54.650Z,79.96
2023-02-21T19:09:22.222Z,79.62
2023-02-21T19:11:50.522Z,79.95
2023-02-21T19:14:18.622Z,79.98
2023-02-21T19:16:46.575Z,80.67
2023-02-21T19:19:14.957Z,80.69
2023-02-21T19:21:42.642Z,80.92
2023-02-21T19:24:10.260Z,80.76
2023-02-21T19:26:38.034Z,80.94
2023-02-21T19:29:06.013Z,81.41
2023-02-21T19:31:34.551Z,81.70
2023-02-21T19:34:02.735Z,81.86
2023-02-21T19:36:31.178Z,82.30
2023-02-21T19:38:59.094Z,82.07
2023-02-21T19:41:46.306Z,82.14
2023-02-21T19:44:13.918Z,81.80
2023-02-21T19:46:41.547Z,82.22
2023-02-21T19:49:29.990Z,82.43
2023-02-21T19:51:59.108Z,82.38
2023-02-21T19:54:31.173Z,82.16
2023-02-21T19:56:59.224Z,82.05
2023-02-21T19:59:29.748Z,82.01
2023-02-21T20:01:59.796Z,81.71
2023-02-21T20:04:28.845Z,82.40
2023-02-21T20:06:59.479Z,82.35
2023-02-21T20:09:26.685Z,82.32
2023-02-21T20:11:54.380Z,82.54
2023-02-21T20:14:22.006Z,81.79
2023-02-21T20:16:49.886Z,81.56
2023-02-21T20:19:17.860Z,81.89
2023-02-21T20:21:46.035Z,82.05
2023-02-21T20:24:14.011Z,81.99
2023-02-21T20:26:41.983Z,81.94
2023-02-21T20:29:10.143Z,81.71
2023-02-21T20:31:38.792Z,81.58
2023-02-21T20:34:07.049Z,81.34
2023-02-21T20:36:36.570Z,80.97
2023-02-21T20:39:04.710Z,81.40
2023-02-21T20:41:32.822Z,81.94
2023-02-21T20:44:03.881Z,82.10
2023-02-21T20:46:34.015Z,82.10
2023-02-21T20:49:02.124Z,82.17
2023-02-21T20:51:33.267Z,82.65
2023-02-21T20:54:04.814Z,82.58
2023-02-21T20:56:36.089Z,82.73
2023-02-21T20:59:05.010Z,82.68
2023-02-21T21:01:32.931Z,82.92
2023-02-21T21:04:08.914Z,82.64
2023-02-21T21:06:37.323Z,82.77
2023-02-21T21:09:05.929Z,83.18
2023-02-21T21:11:35.020Z,83.42
2023-02-21T21:14:03.036Z,83.91
2023-02-21T21:16:31.870Z,84.01
2023-02-21T21:18:59.698Z,83.89
2023-02-21T21:21:32.005Z,84.42
2023-02-21T21:24:00.596Z,84.27
2023-02-21T21:26:28.608Z,84.72
2023-02-21T21:28:56.449Z,85.07
2023-02-21T21:31:24.708Z,85.85
2023-02-21T21:33:52.936Z,85.80
2023-02-21T21:36:21.131Z,86.12
2023-02-21T21:38:49.064Z,86.70
2023-02-21T21:41:17.329Z,87.14
2023-02-21T21:43:45.121Z,87.36
2023-02-21T21:46:13.118Z,87.48
2023-02-21T21:48:45.469Z,87.52
2023-02-21T21:51:14.393Z,87.84
2023-02-21T21:53:42.656Z,87.69
2023-02-21T21:56:11.428Z,87.56
2023-02-21T21:58:39.448Z,86.49
2023-02-21T22:01:07.862Z,86.08
2023-02-21T22:03:36.112Z,86.04
2023-02-21T22:06:04.941Z,86.21
2023-02-21T22:08:32.679Z,86.61
2023-02-21T22:11:00.318Z,86.64
2023-02-21T22:13:33.896Z,86.82
2023-02-21T22:16:01.928Z,87.12
2023-02-21T22:18:29.975Z,87.10
2023-02-21T22:20:59.205Z,86.88
2023-02-21T22:23:27.223Z,86.80
2023-02-21T22:25:57.268Z,86.90
2023-02-21T22:28:25.217Z,86.41
2023-02-21T22:30:53.551Z,86.75
2023-02-21T22:33:22.516Z,86.59
2023-02-21T22:35:50.098Z,86.75
2023-02-21T22:38:17.955Z,86.69
2023-02-21T22:40:46.329Z,86.90
2023-02-21T22:43:14.056Z,86.80
2023-02-21T22:45:49.730Z,86.29
2023-02-21T22:48:20.415Z,86.14
2023-02-21T22:50:47.887Z,85.88
2023-02-21T22:53:15.197Z,86.45
2023-02-21T22:55:43.997Z,86.40
2023-02-21T22:58:11.646Z,86.45
2023-02-21T23:00:39.498Z,86.57
2023-02-21T23:03:14.490Z,86.51
2023-02-21T23:06:06.994Z,86.59
2023-02-21T23:08:37.621Z,86.65
2023-02-21T23:11:06.596Z,86.93
2023-02-21T23:13:38.076Z,86.81
2023-02-21T23:16:06.913Z,86.89
2023-02-21T23:18:34.486Z,87.03
2023-02-21T23:21:04.662Z,86.76
2023-02-21T23:23:32.682Z,86.66
2023-02-21T23:26:00.776Z,86.82
2023-02-21T23:28:31.108Z,86.31
2023-02-21T23:31:02.097Z,86.06
2023-02-21T23:33:34.070Z,86.22
2023-02-21T23:36:04.773Z,86.29
2023-02-21T23:38:38.283Z,86.20
2023-02-21T23:41:09.678Z,86.55
2023-02-21T23:43:37.450Z,86.41
2023-02-21T23:46:07.142Z,86.55
2023-02-21T23:48:35.615Z,86.74
2023-02-21T23:51:03.856Z,86.47
2023-02-21T23:53:31.978Z,86.46
2023-02-21T23:56:01.047Z,86.75
2023-02-21T23:58:29.485Z,86.36
